createdAt,value
2023-01-11T00:01:40.913Z,0.73
2023-01-11T00:07:42.679Z,0.55
2023-01-11T00:13:45.423Z,0.80
2023-01-11T00:19:47.176Z,0.70
2023-01-11T00:25:48.988Z,0.60
2023-01-11T00:31:50.759Z,0.60
2023-01-11T00:37:54.133Z,0.90
2023-01-11T00:44:14.753Z,0.75
2023-01-11T00:50:17.761Z,0.60
2023-01-11T00:56:19.508Z,0.50
2023-01-11T01:02:22.580Z,0.70
2023-01-11T01:08:24.429Z,0.50
2023-01-11T01:14:26.413Z,0.50
2023-01-11T01:20:28.259Z,0.47
2023-01-11T01:26:30.009Z,0.90
2023-01-11T01:32:31.760Z,0.70
2023-01-11T01:38:33.491Z,0.30
2023-01-11T01:44:53.469Z,1.00
2023-01-11T01:50:59.832Z,0.50
2023-01-11T01:57:06.568Z,0.50
2023-01-11T02:03:11.219Z,0.50
2023-01-11T02:15:22.610Z,0.40
2023-01-11T02:21:36.347Z,0.60
2023-01-11T02:28:08.085Z,0.50
2023-01-11T02:34:37.953Z,0.45
2023-01-11T02:40:45.165Z,0.50
2023-01-11T02:46:55.905Z,0.60
2023-01-11T02:53:12.823Z,0.52
2023-01-11T02:59:19.337Z,0.60
2023-01-11T03:05:21.131Z,0.40
2023-01-11T03:12:02.388Z,0.40
2023-01-11T03:18:24.045Z,0.52
2023-01-11T03:24:48.104Z,0.35
2023-01-11T03:31:07.664Z,0.40
2023-01-11T03:37:28.563Z,0.38
2023-01-11T03:43:33.981Z,0.25
2023-01-11T03:49:56.499Z,0.40
2023-01-11T03:56:00.478Z,0.45
2023-01-11T04:02:02.760Z,0.43
2023-01-11T04:08:04.719Z,0.38
2023-01-11T04:14:06.544Z,0.30
2023-01-11T04:20:12.126Z,0.63
2023-01-11T04:26:13.953Z,0.40
2023-01-11T04:32:15.668Z,0.40
2023-01-11T04:38:17.482Z,0.40
2023-01-11T04:44:19.225Z,0.30
2023-01-11T04:50:21.064Z,0.47
2023-01-11T04:56:22.816Z,0.43
2023-01-11T05:02:25.741Z,0.35
2023-01-11T05:08:29.506Z,0.50
2023-01-11T05:14:31.200Z,0.30
2023-01-11T05:20:32.914Z,0.30
2023-01-11T05:26:37.307Z,0.40
2023-01-11T05:32:39.029Z,0.30
2023-01-11T05:38:40.875Z,0.17
2023-01-11T05:45:01.099Z,0.20
2023-01-11T05:51:02.836Z,0.30
2023-01-11T05:57:09.329Z,0.43
2023-01-11T06:03:11.387Z,0.30
2023-01-11T06:09:13.150Z,0.30
2023-01-11T06:15:14.981Z,0.50
2023-01-11T06:21:17.922Z,0.50
2023-01-11T06:27:19.663Z,0.47
2023-01-11T06:33:22.811Z,0.40
2023-01-11T06:39:24.535Z,0.50
2023-01-11T06:45:26.271Z,0.35
2023-01-11T06:51:27.994Z,0.60
2023-01-11T06:57:30.103Z,0.70
2023-01-11T07:03:31.914Z,0.60
2023-01-11T07:09:33.691Z,0.65
2023-01-11T07:15:35.480Z,0.68
2023-01-11T07:21:37.295Z,0.70
2023-01-11T07:27:39.952Z,0.80
2023-01-11T07:33:41.705Z,0.95
2023-01-11T07:39:44.141Z,0.70
2023-01-11T07:45:49.622Z,0.98
2023-01-11T07:51:54.616Z,0.90
2023-01-11T07:57:57.614Z,0.82
2023-01-11T08:03:59.335Z,0.80
2023-01-11T08:10:01.092Z,1.13
2023-01-11T08:16:02.876Z,1.10
2023-01-11T08:22:04.738Z,1.10
2023-01-11T08:28:07.598Z,1.05
2023-01-11T08:34:09.334Z,1.65
2023-01-11T08:40:11.782Z,1.13
2023-01-11T08:46:13.550Z,1.50
2023-01-11T08:52:15.340Z,1.38
2023-01-11T08:58:17.160Z,1.20
2023-01-11T09:04:25.227Z,1.40
2023-01-11T09:10:27.338Z,1.60
2023-01-11T09:16:29.128Z,2.50
2023-01-11T09:22:30.905Z,2.70
2023-01-11T09:28:32.746Z,3.28
2023-01-11T09:34:35.043Z,4.03
2023-01-11T09:40:52.148Z,3.85
2023-01-11T09:47:00.685Z,4.95
2023-01-11T09:53:09.670Z,5.18
2023-01-11T09:59:38.144Z,6.53
2023-01-11T10:05:51.410Z,7.65
2023-01-11T10:19:19.602Z,7.40
2023-01-11T10:25:30.435Z,8.32
2023-01-11T10:31:58.593Z,9.00
2023-01-11T10:38:23.964Z,8.93
2023-01-11T10:44:37.793Z,9.07
2023-01-11T10:51:05.603Z,9.77
2023-01-11T10:57:11.342Z,9.25
2023-01-11T11:03:27.466Z,7.55
2023-01-11T11:09:56.824Z,7.00
2023-01-11T11:16:04.377Z,5.93
2023-01-11T11:22:06.529Z,6.57
2023-01-11T11:28:33.426Z,6.78
2023-01-11T11:34:35.179Z,5.45
2023-01-11T11:40:38.644Z,5.30
2023-01-11T11:46:40.373Z,4.60
2023-01-11T11:52:42.617Z,4.53
2023-01-11T11:58:45.509Z,4.47
2023-01-11T12:04:49.602Z,4.22
2023-01-11T12:10:57.501Z,4.32
2023-01-11T12:16:59.473Z,3.97
2023-01-11T12:23:24.172Z,4.05
2023-01-11T12:29:25.870Z,3.13
2023-01-11T12:35:36.748Z,3.33
2023-01-11T12:41:57.245Z,2.92
2023-01-11T12:48:10.916Z,2.60
2023-01-11T12:54:30.645Z,3.55
2023-01-11T13:01:21.220Z,2.67
2023-01-11T13:07:52.239Z,2.15
2023-01-11T13:14:03.137Z,2.63
2023-01-11T13:20:23.380Z,2.60
2023-01-11T13:26:34.769Z,1.83
2023-01-11T13:32:40.137Z,2.10
2023-01-11T13:39:00.512Z,2.22
2023-01-11T13:45:13.253Z,2.10
2023-01-11T13:51:14.969Z,2.65
2023-01-11T13:57:43.836Z,2.33
2023-01-11T14:03:57.048Z,2.50
2023-01-11T14:10:25.444Z,2.47
2023-01-11T14:16:48.758Z,2.63
2023-01-11T14:23:12.072Z,2.35
2023-01-11T14:29:41.147Z,2.10
2023-01-11T14:35:42.864Z,2.20
2023-01-11T14:41:44.591Z,2.55
2023-01-11T14:47:59.047Z,2.05
2023-01-11T14:54:16.854Z,1.75
2023-01-11T15:00:18.687Z,2.22
2023-01-11T15:06:22.579Z,2.00
2023-01-11T15:12:36.077Z,2.33
2023-01-11T15:18:44.874Z,1.80
2023-01-11T15:24:59.911Z,2.33
2023-01-11T15:31:05.742Z,2.38
2023-01-11T15:37:48.980Z,1.77
2023-01-11T15:44:28.386Z,1.90
2023-01-11T15:50:40.585Z,2.05
2023-01-11T15:57:16.586Z,2.10
2023-01-11T16:03:40.816Z,3.10
2023-01-11T16:10:18.733Z,2.50
2023-01-11T16:16:26.732Z,2.95
2023-01-11T16:22:28.745Z,2.28
2023-01-11T16:28:30.788Z,3.40
2023-01-11T16:34:46.108Z,2.90
2023-01-11T16:40:53.979Z,3.03
2023-01-11T16:47:06.427Z,3.33
2023-01-11T16:53:13.372Z,3.03
2023-01-11T16:59:15.122Z,3.83
2023-01-11T17:05:23.169Z,3.58
2023-01-11T17:11:35.665Z,3.65
2023-01-11T17:17:38.155Z,2.63
2023-01-11T17:23:44.867Z,3.17
2023-01-11T17:29:47.824Z,3.15
2023-01-11T17:35:49.797Z,3.08
2023-01-11T17:42:10.706Z,2.78
2023-01-11T17:48:15.281Z,2.53
2023-01-11T17:54:23.993Z,3.15
2023-01-11T18:00:28.652Z,3.28
2023-01-11T18:12:34.112Z,3.78
2023-01-11T18:18:47.696Z,3.23
2023-01-11T18:24:54.482Z,3.40
2023-01-11T18:31:00.228Z,3.25
2023-01-11T18:37:06.341Z,2.83
2023-01-11T18:43:10.881Z,3.70
2023-01-11T18:49:12.645Z,3.55
2023-01-11T18:55:15.014Z,2.75
2023-01-11T19:01:17.232Z,2.67
2023-01-11T19:07:19.008Z,2.75
2023-01-11T19:13:21.156Z,2.97
2023-01-11T19:19:22.890Z,2.83
2023-01-11T19:25:24.613Z,2.97
2023-01-11T19:31:26.366Z,3.30
2023-01-11T19:37:28.481Z,2.65
2023-01-11T19:43:30.592Z,2.47
2023-01-11T19:49:32.332Z,2.63
2023-01-11T19:55:34.062Z,3.20
2023-01-11T20:01:35.995Z,2.08
2023-01-11T20:07:37.741Z,2.72
2023-01-11T20:13:39.930Z,2.35
2023-01-11T20:19:43.270Z,2.28
2023-01-11T20:25:44.997Z,2.10
2023-01-11T20:31:49.134Z,1.90
2023-01-11T20:37:50.890Z,1.90
2023-01-11T20:43:52.683Z,2.22
2023-01-11T20:49:54.425Z,1.67
2023-01-11T20:55:56.565Z,1.65
2023-01-11T21:01:58.395Z,1.92
2023-01-11T21:08:00.134Z,2.35
2023-01-11T21:14:04.667Z,1.50
2023-01-11T21:20:07.230Z,1.83
2023-01-11T21:26:17.510Z,1.92
2023-01-11T21:32:19.271Z,1.85
2023-01-11T21:38:21.037Z,2.20
2023-01-11T21:44:27.282Z,2.33
2023-01-11T21:50:29.058Z,1.92
2023-01-11T21:56:30.861Z,1.95
2023-01-11T22:02:32.553Z,2.30
2023-01-11T22:08:35.718Z,2.03
2023-01-11T22:14:37.511Z,2.20
2023-01-11T22:20:40.765Z,2.25
2023-01-11T22:26:42.635Z,1.85
2023-01-11T22:32:44.387Z,1.90
2023-01-11T22:38:46.863Z,1.90
2023-01-11T22:44:48.633Z,1.95
2023-01-11T22:50:50.570Z,2.45
2023-01-11T22:56:52.334Z,2.10
2023-01-11T23:02:56.664Z,1.42
2023-01-11T23:08:58.882Z,1.92
2023-01-11T23:15:00.641Z,2.10
2023-01-11T23:21:04.042Z,2.00
2023-01-11T23:27:06.122Z,2.10
2023-01-11T23:33:08.037Z,1.73
2023-01-11T23:39:15.284Z,1.42
2023-01-11T23:45:17.004Z,2.28
2023-01-11T23:51:18.765Z,1.73
2023-01-11T23:57:21.831Z,2.10
